Nyk Argus — HPZA — position and weather

sailwx.info

Track history (hours):
 
Tides and Currents Weather Stations Pressure Air Temp Water Temp Dewpoint Dewpoint Depression Visibility Wind Speed Wind Dir Waves Ship Positions

Nyk Argus

Last reported at 2018-Jan-19 14:59 UTC. Time now 2018-Jan-19 15:11 UTC.
Position N 37°48' W 122°19'.

Length 299.9 m; beam 40 m.

Type: Ship (hazmat cat D). MMSI: 356872000.

Date/timePositionNaut miles runAvg speedWind from/ knotsBaromVisibWave heightAir tempDewpointWater temp
2018-Jan-19 14:59N 37°48' W 122°19'0 0.0
2018-Jan-19 14:29N 37°48' W 122°19'0 0.0
2018-Jan-19 13:59N 37°48' W 122°19'0 0.0
2018-Jan-19 13:29N 37°48' W 122°19'0 0.0
2018-Jan-19 12:59N 37°48' W 122°19'0 0.0
2018-Jan-19 12:29N 37°48' W 122°19'0 0.0
2018-Jan-19 11:59N 37°48' W 122°19'0 0.0
2018-Jan-19 11:29N 37°48' W 122°19'0 0.0
2018-Jan-19 10:59N 37°48' W 122°19'0 0.0
2018-Jan-19 10:29N 37°48' W 122°19'0 0.0
2018-Jan-19 09:59N 37°48' W 122°19'0 0.0
2018-Jan-19 09:29N 37°48' W 122°19'1 2.3
2018-Jan-19 09:01N 37°48' W 122°17'1 1.9
2018-Jan-19 08:31N 37°48' W 122°19'3 5.4
2018-Jan-19 08:01N 37°47' W 122°22'2 3.8
2018-Jan-19 07:28N 37°45' W 122°21'0 0.0
2018-Jan-19 06:58N 37°45' W 122°21'0 0.1
2018-Jan-19 06:28N 37°45' W 122°21'0 0.1
2018-Jan-19 05:58N 37°45' W 122°21'0 0.0
2018-Jan-19 05:28N 37°45' W 122°21'0 0.0
2018-Jan-19 04:58N 37°45' W 122°21'0 0.1
2018-Jan-19 04:28N 37°45' W 122°21'0 0.1
2018-Jan-19 03:58N 37°46' W 122°21'0 0.3
2018-Jan-19 03:28N 37°46' W 122°21'0 0.2
2018-Jan-19 02:58N 37°46' W 122°21'0 0.0
2018-Jan-19 02:28N 37°46' W 122°21'0 0.1
2018-Jan-19 01:58N 37°46' W 122°21'0 0.0
2018-Jan-19 01:28N 37°46' W 122°21'0 0.0
2018-Jan-19 00:58N 37°46' W 122°21'0 0.0
2018-Jan-19 00:28N 37°46' W 122°21'0 0.0
2018-Jan-18 23:58N 37°46' W 122°21'0 0.0
2018-Jan-18 23:28N 37°46' W 122°21'0 0.0
2018-Jan-18 22:58N 37°46' W 122°21'0 0.0
2018-Jan-18 22:28N 37°46' W 122°21'0 0.2
2018-Jan-18 21:58N 37°46' W 122°21'0 0.2
2018-Jan-18 21:28N 37°46' W 122°21'0 0.5
2018-Jan-18 20:58N 37°45' W 122°21'0 0.3
2018-Jan-18 20:28N 37°45' W 122°21'0 0.1
2018-Jan-18 19:58N 37°45' W 122°21'0 0.0
2018-Jan-18 19:28N 37°45' W 122°21'0 0.0
2018-Jan-18 18:58N 37°45' W 122°21'0 0.0
2018-Jan-18 18:28N 37°45' W 122°21'0 0.1
2018-Jan-18 17:58N 37°45' W 122°21'0 0.0
2018-Jan-18 17:28N 37°45' W 122°21'0 0.1
2018-Jan-18 16:58N 37°45' W 122°21'0 0.5
2018-Jan-18 16:28N 37°46' W 122°21'0 0.3
2018-Jan-18 15:58N 37°46' W 122°21'0 0.0
2018-Jan-18 15:28N 37°46' W 122°21'0 0.1
2018-Jan-18 14:58N 37°46' W 122°21'0 0.0
2018-Jan-18 14:28N 37°46' W 122°21'0 0.1
2018-Jan-18 13:58N 37°46' W 122°21'0 0.1
2018-Jan-18 13:28N 37°46' W 122°21'0 0.2
2018-Jan-18 13:01N 37°46' W 122°21'3 6.2
2018-Jan-18 12:30N 37°48' W 122°23'510.0
2018-Jan-18 12:00N 37°49' W 122°30'611.5
2018-Jan-18 11:30N 37°46' W 122°36'5 9.7
2018-Jan-18 11:00N 37°43' W 122°41'4 8.5
2018-Jan-18 10:30N 37°39' W 122°40'611.3
2018-Jan-18 10:00N 37°33' W 122°40'511.0
2018-Jan-18 09:30N 37°28' W 122°40'5 9.2
2018-Jan-18 09:00N 37°23' W 122°40'5 9.3
2018-Jan-18 08:30N 37°19' W 122°40'5 9.3
2018-Jan-18 08:00N 37°14' W 122°40'5 9.3
2018-Jan-18 07:30N 37°09' W 122°40'4 8.8
2018-Jan-18 07:00N 37°05' W 122°37'4 9.1
2018-Jan-18 06:30N 37°01' W 122°36'5 9.1
2018-Jan-18 06:00N 36°57' W 122°35'4 8.2
2018-Jan-18 05:30N 36°53' W 122°33'2 4.2
2018-Jan-18 05:00N 36°54' W 122°32'4 8.0
2018-Jan-18 04:30N 36°50' W 122°31'4 8.6
2018-Jan-18 04:00N 36°46' W 122°29'4 8.7
2018-Jan-18 03:30N 36°42' W 122°27'4 8.8
2018-Jan-18 03:00N 36°38' W 122°25'612.0
2018-Jan-18 02:30N 36°33' W 122°22'612.8
2018-Jan-18 02:00N 36°27' W 122°19'612.9
2018-Jan-18 01:30N 36°21' W 122°16'612.8
2018-Jan-18 01:00N 36°15' W 122°12'1312.9
2018-Jan-18 00:00N 36°04' W 122°04'113.1
2018-Jan-17 23:57N 36°03' W 122°04'  
Track history (hours):
 
Tides and Currents Weather Stations Pressure Air Temp Water Temp Dewpoint Dewpoint Depression Visibility Wind Speed Wind Dir Waves Ship Positions

Nyk Argus

Last reported at 2018-Jan-19 14:59 UTC. Time now 2018-Jan-19 15:11 UTC.
Position N 37°48' W 122°19'.

Length 299.9 m; beam 40 m.

Type: Ship (hazmat cat D). MMSI: 356872000.

Date/timePositionNaut miles runAvg speedWind from/ knotsBaromVisibWave heightAir tempDewpointWater temp
2018-Jan-19 14:59N 37°48' W 122°19'0 0.0
2018-Jan-19 14:29N 37°48' W 122°19'0 0.0
2018-Jan-19 13:59N 37°48' W 122°19'0 0.0
2018-Jan-19 13:29N 37°48' W 122°19'0 0.0
2018-Jan-19 12:59N 37°48' W 122°19'0 0.0
2018-Jan-19 12:29N 37°48' W 122°19'0 0.0
2018-Jan-19 11:59N 37°48' W 122°19'0 0.0
2018-Jan-19 11:29N 37°48' W 122°19'0 0.0
2018-Jan-19 10:59N 37°48' W 122°19'0 0.0
2018-Jan-19 10:29N 37°48' W 122°19'0 0.0
2018-Jan-19 09:59N 37°48' W 122°19'0 0.0
2018-Jan-19 09:29N 37°48' W 122°19'1 2.3
2018-Jan-19 09:01N 37°48' W 122°17'1 1.9
2018-Jan-19 08:31N 37°48' W 122°19'3 5.4
2018-Jan-19 08:01N 37°47' W 122°22'2 3.8
2018-Jan-19 07:28N 37°45' W 122°21'0 0.0
2018-Jan-19 06:58N 37°45' W 122°21'0 0.1
2018-Jan-19 06:28N 37°45' W 122°21'0 0.1
2018-Jan-19 05:58N 37°45' W 122°21'0 0.0
2018-Jan-19 05:28N 37°45' W 122°21'0 0.0
2018-Jan-19 04:58N 37°45' W 122°21'0 0.1
2018-Jan-19 04:28N 37°45' W 122°21'0 0.1
2018-Jan-19 03:58N 37°46' W 122°21'0 0.3
2018-Jan-19 03:28N 37°46' W 122°21'0 0.2
2018-Jan-19 02:58N 37°46' W 122°21'0 0.0
2018-Jan-19 02:28N 37°46' W 122°21'0 0.1
2018-Jan-19 01:58N 37°46' W 122°21'0 0.0
2018-Jan-19 01:28N 37°46' W 122°21'0 0.0
2018-Jan-19 00:58N 37°46' W 122°21'0 0.0
2018-Jan-19 00:28N 37°46' W 122°21'0 0.0
2018-Jan-18 23:58N 37°46' W 122°21'0 0.0
2018-Jan-18 23:28N 37°46' W 122°21'0 0.0
2018-Jan-18 22:58N 37°46' W 122°21'0 0.0
2018-Jan-18 22:28N 37°46' W 122°21'0 0.2
2018-Jan-18 21:58N 37°46' W 122°21'0 0.2
2018-Jan-18 21:28N 37°46' W 122°21'0 0.5
2018-Jan-18 20:58N 37°45' W 122°21'0 0.3
2018-Jan-18 20:28N 37°45' W 122°21'0 0.1
2018-Jan-18 19:58N 37°45' W 122°21'0 0.0
2018-Jan-18 19:28N 37°45' W 122°21'0 0.0
2018-Jan-18 18:58N 37°45' W 122°21'0 0.0
2018-Jan-18 18:28N 37°45' W 122°21'0 0.1
2018-Jan-18 17:58N 37°45' W 122°21'0 0.0
2018-Jan-18 17:28N 37°45' W 122°21'0 0.1
2018-Jan-18 16:58N 37°45' W 122°21'0 0.5
2018-Jan-18 16:28N 37°46' W 122°21'0 0.3
2018-Jan-18 15:58N 37°46' W 122°21'0 0.0
2018-Jan-18 15:28N 37°46' W 122°21'0 0.1
2018-Jan-18 14:58N 37°46' W 122°21'0 0.0
2018-Jan-18 14:28N 37°46' W 122°21'0 0.1
2018-Jan-18 13:58N 37°46' W 122°21'0 0.1
2018-Jan-18 13:28N 37°46' W 122°21'0 0.2
2018-Jan-18 13:01N 37°46' W 122°21'3 6.2
2018-Jan-18 12:30N 37°48' W 122°23'510.0
2018-Jan-18 12:00N 37°49' W 122°30'611.5
2018-Jan-18 11:30N 37°46' W 122°36'5 9.7
2018-Jan-18 11:00N 37°43' W 122°41'4 8.5
2018-Jan-18 10:30N 37°39' W 122°40'611.3
2018-Jan-18 10:00N 37°33' W 122°40'511.0
2018-Jan-18 09:30N 37°28' W 122°40'5 9.2
2018-Jan-18 09:00N 37°23' W 122°40'5 9.3
2018-Jan-18 08:30N 37°19' W 122°40'5 9.3
2018-Jan-18 08:00N 37°14' W 122°40'5 9.3
2018-Jan-18 07:30N 37°09' W 122°40'4 8.8
2018-Jan-18 07:00N 37°05' W 122°37'4 9.1
2018-Jan-18 06:30N 37°01' W 122°36'5 9.1
2018-Jan-18 06:00N 36°57' W 122°35'4 8.2
2018-Jan-18 05:30N 36°53' W 122°33'2 4.2
2018-Jan-18 05:00N 36°54' W 122°32'4 8.0
2018-Jan-18 04:30N 36°50' W 122°31'4 8.6
2018-Jan-18 04:00N 36°46' W 122°29'4 8.7
2018-Jan-18 03:30N 36°42' W 122°27'4 8.8
2018-Jan-18 03:00N 36°38' W 122°25'612.0
2018-Jan-18 02:30N 36°33' W 122°22'612.8
2018-Jan-18 02:00N 36°27' W 122°19'612.9
2018-Jan-18 01:30N 36°21' W 122°16'612.8
2018-Jan-18 01:00N 36°15' W 122°12'1312.9
2018-Jan-18 00:00N 36°04' W 122°04'113.1
2018-Jan-17 23:57N 36°03' W 122°04'  

Dump ship's entire track history